createdAt,value
2019-05-23T00:01:27.210Z,12.23
2019-05-23T00:03:59.098Z,11.55
2019-05-23T00:06:29.822Z,13.32
2019-05-23T00:09:00.872Z,11.93
2019-05-23T00:11:32.309Z,12.55
2019-05-23T00:14:08.596Z,12.03
2019-05-23T00:16:38.914Z,11.40
2019-05-23T00:19:08.965Z,11.45
2019-05-23T00:21:39.153Z,12.25
2019-05-23T00:24:10.792Z,11.40
2019-05-23T00:26:41.379Z,11.65
2019-05-23T00:29:12.228Z,11.10
2019-05-23T00:31:45.081Z,12.40
2019-05-23T00:34:15.277Z,12.25
2019-05-23T00:36:46.141Z,12.75
2019-05-23T00:39:16.781Z,12.28
2019-05-23T00:41:46.911Z,12.50
2019-05-23T00:44:17.438Z,12.82
2019-05-23T00:46:47.495Z,11.78
2019-05-23T00:49:18.409Z,13.25
2019-05-23T00:51:48.445Z,12.13
2019-05-23T00:54:19.584Z,11.10
2019-05-23T00:56:50.259Z,11.90
2019-05-23T00:59:26.901Z,11.83
2019-05-23T01:01:52.500Z,10.70
2019-05-23T01:04:22.636Z,11.30
2019-05-23T01:06:53.912Z,11.12
2019-05-23T01:09:25.651Z,10.95
2019-05-23T01:11:55.517Z,10.20
2019-05-23T01:14:25.796Z,9.83
2019-05-23T01:16:56.010Z,10.45
2019-05-23T01:19:26.212Z,10.63
2019-05-23T01:21:58.207Z,10.50
2019-05-23T01:24:36.207Z,10.82
2019-05-23T01:27:07.125Z,10.70
2019-05-23T01:29:42.381Z,10.43
2019-05-23T01:32:14.585Z,9.65
2019-05-23T01:34:46.569Z,10.13
2019-05-23T01:37:19.190Z,11.65
2019-05-23T01:39:49.523Z,10.25
2019-05-23T01:42:20.462Z,10.00
2019-05-23T01:44:52.004Z,11.00
2019-05-23T01:47:23.436Z,9.78
2019-05-23T01:49:54.631Z,9.98
2019-05-23T01:52:25.410Z,9.23
2019-05-23T01:54:55.225Z,9.38
2019-05-23T01:57:25.192Z,10.68
2019-05-23T02:00:09.111Z,11.18
2019-05-23T02:02:28.642Z,10.80
2019-05-23T02:04:59.286Z,11.35
2019-05-23T02:07:30.195Z,9.88
2019-05-23T02:10:00.373Z,10.03
2019-05-23T02:12:30.794Z,11.30
2019-05-23T02:15:03.138Z,10.80
2019-05-23T02:17:33.598Z,11.73
2019-05-23T02:20:04.443Z,11.22
2019-05-23T02:22:34.340Z,11.63
2019-05-23T02:25:07.892Z,9.85
2019-05-23T02:27:38.356Z,10.03
2019-05-23T02:30:30.072Z,10.45
2019-05-23T02:32:41.843Z,11.70
2019-05-23T02:35:13.454Z,12.58
2019-05-23T02:37:44.901Z,11.50
2019-05-23T02:40:25.379Z,11.05
2019-05-23T02:42:59.584Z,11.90
2019-05-23T02:45:49.154Z,11.73
2019-05-23T02:48:35.947Z,12.00
2019-05-23T02:51:08.921Z,12.25
2019-05-23T02:53:40.944Z,11.70
2019-05-23T02:56:14.662Z,11.55
2019-05-23T02:58:47.782Z,12.25
2019-05-23T03:01:31.301Z,10.32
2019-05-23T03:04:04.769Z,10.45
2019-05-23T03:06:37.088Z,10.75
2019-05-23T03:09:08.865Z,10.72
2019-05-23T03:11:43.564Z,11.10
2019-05-23T03:14:16.613Z,11.68
2019-05-23T03:16:48.706Z,11.15
2019-05-23T03:19:27.259Z,11.65
2019-05-23T03:22:01.170Z,11.83
2019-05-23T03:24:33.299Z,11.68
2019-05-23T03:27:05.276Z,11.95
2019-05-23T03:29:35.918Z,11.25
2019-05-23T03:32:13.094Z,11.70
2019-05-23T03:34:47.402Z,11.30
2019-05-23T03:37:17.204Z,11.83
2019-05-23T03:39:47.384Z,13.70
2019-05-23T03:42:17.535Z,15.85
2019-05-23T03:44:48.244Z,13.88
2019-05-23T03:47:19.836Z,13.53
2019-05-23T03:49:50.700Z,15.72
2019-05-23T03:52:21.706Z,13.83
2019-05-23T03:54:52.557Z,13.32
2019-05-23T03:57:25.849Z,14.23
2019-05-23T03:59:56.476Z,13.10
2019-05-23T04:02:26.754Z,11.43
2019-05-23T04:04:58.653Z,14.35
2019-05-23T04:07:30.248Z,13.38
2019-05-23T04:10:00.249Z,12.43
2019-05-23T04:12:30.370Z,13.55
2019-05-23T04:15:00.155Z,13.05
2019-05-23T04:17:30.017Z,12.98
2019-05-23T04:20:00.508Z,14.00
2019-05-23T04:22:30.550Z,15.55
2019-05-23T04:25:02.165Z,13.60
2019-05-23T04:27:32.337Z,12.47
2019-05-23T04:30:02.428Z,13.08
2019-05-23T04:32:32.488Z,12.33
2019-05-23T04:35:02.710Z,13.98
2019-05-23T04:37:32.858Z,13.55
2019-05-23T04:40:03.283Z,14.13
2019-05-23T04:42:33.371Z,13.75
2019-05-23T04:45:03.633Z,14.87
2019-05-23T04:47:33.409Z,13.93
2019-05-23T04:50:06.501Z,15.43
2019-05-23T04:52:37.255Z,15.32
2019-05-23T04:55:08.573Z,15.15
2019-05-23T04:57:38.368Z,15.85
2019-05-23T05:00:11.006Z,13.75
2019-05-23T05:02:41.494Z,13.53
2019-05-23T05:05:12.209Z,15.30
2019-05-23T05:07:42.039Z,15.23
2019-05-23T05:10:14.432Z,14.83
2019-05-23T05:12:44.908Z,15.23
2019-05-23T05:15:15.242Z,16.95
2019-05-23T05:17:46.054Z,16.75
2019-05-23T05:20:16.692Z,16.57
2019-05-23T05:22:47.093Z,16.35
2019-05-23T05:25:17.345Z,14.30
2019-05-23T05:27:47.322Z,17.45
2019-05-23T05:30:17.470Z,15.35
2019-05-23T05:32:47.735Z,15.83
2019-05-23T05:35:18.028Z,17.02
2019-05-23T05:37:47.996Z,17.23
2019-05-23T05:40:18.491Z,15.83
2019-05-23T05:42:48.323Z,16.73
2019-05-23T05:45:20.338Z,16.23
2019-05-23T05:47:50.418Z,16.32
2019-05-23T05:50:20.961Z,16.82
2019-05-23T05:52:50.942Z,14.50
2019-05-23T05:55:21.190Z,17.05
2019-05-23T05:57:51.085Z,15.70
2019-05-23T06:00:29.132Z,17.48
2019-05-23T06:03:05.310Z,15.85
2019-05-23T06:05:37.287Z,16.23
2019-05-23T06:08:08.821Z,16.90
2019-05-23T06:10:38.967Z,17.57
2019-05-23T06:13:08.948Z,16.80
2019-05-23T06:15:39.002Z,16.50
2019-05-23T06:18:09.175Z,18.35
2019-05-23T06:20:42.998Z,17.62
2019-05-23T06:23:13.384Z,18.23
2019-05-23T06:25:43.556Z,18.35
2019-05-23T06:28:15.364Z,17.92
2019-05-23T06:30:45.931Z,18.92
2019-05-23T06:33:23.511Z,18.62
2019-05-23T06:35:48.972Z,18.10
2019-05-23T06:38:18.881Z,18.12
2019-05-23T06:40:48.882Z,18.17
2019-05-23T06:43:18.878Z,18.62
2019-05-23T06:45:48.790Z,19.45
2019-05-23T06:48:21.099Z,18.67
2019-05-23T06:50:51.349Z,19.60
2019-05-23T06:53:21.315Z,19.17
2019-05-23T06:55:51.283Z,19.15
2019-05-23T06:58:21.997Z,19.20
2019-05-23T07:00:52.409Z,19.00
2019-05-23T07:03:39.891Z,18.73
2019-05-23T07:05:54.102Z,20.23
2019-05-23T07:08:27.182Z,20.85
2019-05-23T07:10:57.171Z,20.25
2019-05-23T07:13:29.599Z,20.40
2019-05-23T07:15:59.515Z,20.08
2019-05-23T07:18:29.529Z,21.25
2019-05-23T07:20:59.456Z,20.55
2019-05-23T07:23:29.656Z,19.00
2019-05-23T07:25:59.862Z,19.67
2019-05-23T07:28:30.139Z,18.15
2019-05-23T07:31:00.506Z,17.23
2019-05-23T07:33:30.421Z,18.23
2019-05-23T07:36:00.336Z,18.52
2019-05-23T07:38:30.231Z,18.37
2019-05-23T07:41:00.611Z,18.55
2019-05-23T07:43:30.488Z,16.73
2019-05-23T07:46:01.375Z,17.62
2019-05-23T07:48:31.246Z,17.00
2019-05-23T07:51:01.333Z,18.50
2019-05-23T07:53:50.800Z,16.93
2019-05-23T07:56:22.625Z,16.32
2019-05-23T07:58:52.485Z,15.28
2019-05-23T08:01:24.171Z,16.17
2019-05-23T08:03:55.884Z,15.65
2019-05-23T08:06:26.107Z,14.65
2019-05-23T08:08:56.069Z,16.20
2019-05-23T08:11:26.659Z,10.75
2019-05-23T08:13:56.652Z,12.23
2019-05-23T08:16:26.954Z,11.90
2019-05-23T08:18:56.847Z,11.68
2019-05-23T08:21:26.776Z,10.50
2019-05-23T08:23:56.557Z,12.95
2019-05-23T08:26:27.408Z,12.05
2019-05-23T08:29:24.221Z,12.25
2019-05-23T08:31:29.559Z,13.05
2019-05-23T08:33:59.966Z,10.20
2019-05-23T08:36:30.304Z,9.93
2019-05-23T08:39:01.559Z,9.20
2019-05-23T08:41:32.233Z,8.78
2019-05-23T08:44:02.321Z,8.78
2019-05-23T08:46:32.121Z,7.55
2019-05-23T08:49:01.914Z,6.97
2019-05-23T08:51:31.705Z,7.00
2019-05-23T08:54:01.973Z,6.33
2019-05-23T08:56:31.780Z,7.25
2019-05-23T08:59:01.580Z,7.17
2019-05-23T09:01:31.376Z,6.42
2019-05-23T09:04:01.811Z,6.17
2019-05-23T09:06:33.432Z,8.15
2019-05-23T09:09:27.739Z,7.25
2019-05-23T09:11:37.881Z,7.50
2019-05-23T09:14:07.841Z,8.23
2019-05-23T09:16:38.321Z,7.97
2019-05-23T09:19:08.299Z,7.78
2019-05-23T09:21:38.443Z,7.55
2019-05-23T09:24:09.727Z,7.85
2019-05-23T09:26:39.525Z,6.92
2019-05-23T09:29:09.711Z,7.50
2019-05-23T09:31:40.024Z,6.78
2019-05-23T09:34:09.899Z,6.35
2019-05-23T09:36:39.769Z,7.00
2019-05-23T09:39:11.651Z,7.53
2019-05-23T09:41:41.453Z,7.45
2019-05-23T09:44:11.236Z,6.30
2019-05-23T09:46:41.050Z,6.78
2019-05-23T09:49:11.597Z,6.75
2019-05-23T09:51:41.484Z,7.33
2019-05-23T09:54:11.405Z,5.50
2019-05-23T09:56:41.383Z,5.33
2019-05-23T09:59:11.259Z,5.45
2019-05-23T10:01:41.066Z,5.42
2019-05-23T10:04:10.892Z,4.85
2019-05-23T10:06:40.911Z,6.17
2019-05-23T10:09:10.743Z,5.83
2019-05-23T10:11:40.529Z,4.83
2019-05-23T10:14:12.036Z,5.45
2019-05-23T10:16:42.022Z,6.30
2019-05-23T10:19:11.823Z,6.35
2019-05-23T10:21:41.650Z,5.53
2019-05-23T10:24:11.713Z,5.97
2019-05-23T10:26:41.565Z,4.95
2019-05-23T10:29:11.358Z,7.10
2019-05-23T10:31:41.154Z,5.42
2019-05-23T10:34:11.026Z,5.97
2019-05-23T10:36:40.790Z,5.95
2019-05-23T10:39:13.014Z,5.40
2019-05-23T10:41:43.444Z,6.05
2019-05-23T10:44:13.408Z,5.03
2019-05-23T10:46:43.205Z,5.65
2019-05-23T10:49:13.000Z,6.62
2019-05-23T10:51:42.781Z,6.05
2019-05-23T10:54:13.504Z,5.62
2019-05-23T10:56:43.280Z,5.03
2019-05-23T10:59:13.059Z,5.40
2019-05-23T11:01:43.757Z,5.12
2019-05-23T11:04:13.734Z,6.40
2019-05-23T11:06:43.699Z,5.92
2019-05-23T11:09:14.530Z,5.62
2019-05-23T11:11:44.526Z,5.42
2019-05-23T11:14:15.171Z,5.95
2019-05-23T11:16:45.285Z,5.85
2019-05-23T11:19:15.174Z,4.92
2019-05-23T11:21:44.986Z,5.70
2019-05-23T11:24:15.140Z,5.72
2019-05-23T11:26:45.567Z,5.33
2019-05-23T11:29:15.348Z,5.62
2019-05-23T11:31:45.250Z,5.08
2019-05-23T11:34:15.054Z,4.58
2019-05-23T11:36:44.903Z,5.08
2019-05-23T11:39:15.251Z,4.72
2019-05-23T11:41:45.072Z,4.97
2019-05-23T11:44:14.861Z,4.78
2019-05-23T11:46:44.686Z,5.12
2019-05-23T11:49:14.962Z,4.97
2019-05-23T11:51:45.035Z,5.40
2019-05-23T11:54:15.527Z,5.83
2019-05-23T11:56:45.482Z,5.65
2019-05-23T11:59:15.546Z,5.92
2019-05-23T12:01:49.694Z,5.17
2019-05-23T12:04:20.891Z,5.97
2019-05-23T12:06:55.946Z,5.40
2019-05-23T12:09:23.877Z,5.40
2019-05-23T12:11:53.941Z,4.97
2019-05-23T12:14:23.801Z,5.72
2019-05-23T12:16:55.285Z,5.12
2019-05-23T12:19:25.442Z,5.72
2019-05-23T12:21:55.646Z,5.53
2019-05-23T12:24:25.661Z,5.25
2019-05-23T12:26:55.507Z,5.78
2019-05-23T12:29:25.377Z,4.35
2019-05-23T12:31:55.297Z,4.97
2019-05-23T12:34:25.196Z,5.47
2019-05-23T12:37:14.301Z,5.70
2019-05-23T12:39:27.220Z,4.20
2019-05-23T12:41:57.009Z,4.87
2019-05-23T12:44:27.106Z,5.47
2019-05-23T12:46:57.121Z,4.40
2019-05-23T12:49:28.600Z,4.20
2019-05-23T12:51:58.953Z,5.58
2019-05-23T12:54:29.424Z,5.33
2019-05-23T12:56:59.230Z,6.12
2019-05-23T12:59:29.022Z,6.45
2019-05-23T13:02:00.017Z,5.87
2019-05-23T13:04:29.833Z,6.12
2019-05-23T13:06:59.642Z,6.10
2019-05-23T13:09:29.748Z,4.85
2019-05-23T13:11:59.559Z,5.10
2019-05-23T13:14:29.625Z,5.00
2019-05-23T13:17:01.043Z,5.50
2019-05-23T13:19:31.142Z,5.20
2019-05-23T13:22:01.505Z,5.35
2019-05-23T13:24:50.676Z,6.12
2019-05-23T13:27:03.698Z,5.53
2019-05-23T13:29:33.507Z,7.03
2019-05-23T13:32:05.255Z,6.10
2019-05-23T13:34:35.087Z,6.33
2019-05-23T13:37:06.625Z,6.17
2019-05-23T13:39:36.482Z,5.83
2019-05-23T13:42:06.414Z,4.87
2019-05-23T13:44:36.490Z,5.80
2019-05-23T13:47:06.373Z,5.08
2019-05-23T13:49:36.428Z,5.72
2019-05-23T13:52:06.214Z,5.42
2019-05-23T13:54:37.109Z,5.22
2019-05-23T13:57:08.785Z,5.53
2019-05-23T13:59:38.648Z,5.60
2019-05-23T14:02:09.563Z,5.05
2019-05-23T14:04:39.707Z,4.50
2019-05-23T14:07:10.694Z,4.70
2019-05-23T14:09:40.526Z,4.90
2019-05-23T14:12:25.997Z,4.70
2019-05-23T14:14:42.125Z,4.25
2019-05-23T14:17:28.905Z,4.03
2019-05-23T14:19:58.929Z,4.35
2019-05-23T14:22:29.424Z,4.03
2019-05-23T14:24:59.250Z,3.30
2019-05-23T14:27:30.655Z,3.72
2019-05-23T14:30:09.507Z,3.12
2019-05-23T14:32:49.974Z,3.47
2019-05-23T14:35:21.742Z,3.17
2019-05-23T14:37:53.161Z,2.45
2019-05-23T14:40:23.220Z,2.83
2019-05-23T14:42:54.651Z,2.58
2019-05-23T14:45:32.254Z,2.83
2019-05-23T14:48:04.009Z,2.30
2019-05-23T14:50:48.139Z,3.00
2019-05-23T14:53:22.278Z,3.20
2019-05-23T14:55:52.232Z,3.20
2019-05-23T14:58:22.107Z,2.72
2019-05-23T15:00:52.923Z,3.10
2019-05-23T15:03:23.182Z,2.72
2019-05-23T15:05:53.271Z,2.50
2019-05-23T15:08:24.652Z,3.00
2019-05-23T15:10:54.808Z,2.67
2019-05-23T15:13:25.799Z,2.87
2019-05-23T15:15:55.897Z,2.65
2019-05-23T15:18:27.046Z,2.98
2019-05-23T15:20:58.052Z,3.40
2019-05-23T15:23:29.073Z,2.87
2019-05-23T15:25:59.869Z,3.00
2019-05-23T15:28:30.966Z,2.25
2019-05-23T15:31:01.966Z,2.75
2019-05-23T15:33:32.978Z,2.55
2019-05-23T15:36:03.411Z,2.83
2019-05-23T15:38:34.403Z,2.55
2019-05-23T15:41:06.189Z,2.25
2019-05-23T15:43:36.746Z,2.80
2019-05-23T15:46:08.413Z,3.05
2019-05-23T15:48:39.834Z,3.02
2019-05-23T15:51:11.759Z,3.27
2019-05-23T15:53:50.303Z,2.65
2019-05-23T15:56:28.921Z,2.70
2019-05-23T15:59:13.489Z,2.67
2019-05-23T16:02:01.841Z,2.77
2019-05-23T16:04:32.480Z,2.47
2019-05-23T16:07:03.880Z,2.58
2019-05-23T16:09:35.256Z,2.42
2019-05-23T16:12:06.520Z,1.80
2019-05-23T16:14:38.488Z,2.72
2019-05-23T16:17:11.242Z,3.05
2019-05-23T16:19:41.799Z,2.40
2019-05-23T16:22:12.326Z,1.98
2019-05-23T16:24:43.508Z,1.98
2019-05-23T16:27:14.503Z,1.72
2019-05-23T16:29:44.926Z,2.10
2019-05-23T16:32:15.203Z,2.30
2019-05-23T16:34:46.321Z,2.12
2019-05-23T16:37:16.638Z,1.90
2019-05-23T16:39:49.703Z,2.42
2019-05-23T16:42:20.466Z,2.20
2019-05-23T16:44:51.165Z,1.77
2019-05-23T16:47:21.992Z,1.72
2019-05-23T16:49:52.931Z,2.10
2019-05-23T16:52:24.446Z,2.00
2019-05-23T16:54:56.535Z,2.27
2019-05-23T16:57:41.445Z,2.20
2019-05-23T17:00:30.473Z,1.70
2019-05-23T17:03:11.367Z,1.87
2019-05-23T17:06:01.895Z,1.92
2019-05-23T17:08:40.018Z,1.80
2019-05-23T17:11:13.031Z,1.80
2019-05-23T17:13:53.929Z,1.92
2019-05-23T17:16:25.936Z,2.40
2019-05-23T17:19:00.641Z,2.00
2019-05-23T17:21:35.579Z,2.08
2019-05-23T17:24:10.130Z,2.25
2019-05-23T17:26:44.981Z,1.92
2019-05-23T17:29:16.967Z,2.15
2019-05-23T17:31:49.452Z,1.82
2019-05-23T17:34:19.653Z,2.25
2019-05-23T17:36:49.830Z,1.90
2019-05-23T17:39:20.833Z,2.00
2019-05-23T17:41:51.301Z,1.95
2019-05-23T17:44:22.304Z,1.77
2019-05-23T17:46:52.493Z,1.65
2019-05-23T17:49:22.761Z,1.98
2019-05-23T17:51:53.755Z,2.02
2019-05-23T17:54:24.667Z,2.20
2019-05-23T17:56:55.682Z,1.75
2019-05-23T17:59:25.877Z,1.67
2019-05-23T18:01:56.528Z,2.25
2019-05-23T18:04:26.636Z,2.05
2019-05-23T18:06:57.693Z,2.05
2019-05-23T18:09:28.334Z,2.12
2019-05-23T18:11:59.685Z,2.90
2019-05-23T18:14:30.866Z,2.92
2019-05-23T18:17:01.196Z,3.67
2019-05-23T18:19:31.852Z,3.02
2019-05-23T18:22:02.775Z,3.80
2019-05-23T18:24:33.472Z,3.87
2019-05-23T18:27:06.171Z,3.52
2019-05-23T18:29:36.499Z,4.17
2019-05-23T18:32:09.395Z,3.20
2019-05-23T18:34:40.929Z,3.65
2019-05-23T18:37:10.903Z,3.70
2019-05-23T18:39:41.008Z,3.42
2019-05-23T18:42:11.764Z,4.40
2019-05-23T18:44:43.134Z,4.15
2019-05-23T18:47:15.967Z,3.80
2019-05-23T18:49:47.239Z,4.10
2019-05-23T18:52:17.849Z,3.50
2019-05-23T18:54:47.849Z,4.45
2019-05-23T18:57:18.341Z,4.30
2019-05-23T18:59:48.779Z,5.42
2019-05-23T19:02:19.109Z,5.15
2019-05-23T19:04:51.293Z,5.05
2019-05-23T19:07:21.548Z,4.65
2019-05-23T19:09:51.441Z,4.75
2019-05-23T19:12:22.760Z,6.58
2019-05-23T19:14:53.850Z,6.28
2019-05-23T19:17:24.688Z,6.83
2019-05-23T19:19:55.000Z,6.75
2019-05-23T19:22:25.788Z,7.85
2019-05-23T19:24:56.266Z,6.28
2019-05-23T19:27:26.356Z,7.20
2019-05-23T19:29:58.045Z,7.40
2019-05-23T19:32:29.842Z,7.33
2019-05-23T19:35:00.033Z,7.17
2019-05-23T19:37:31.062Z,6.28
2019-05-23T19:40:02.143Z,6.92
2019-05-23T19:42:33.192Z,6.17
2019-05-23T19:45:06.645Z,6.08
2019-05-23T19:47:37.821Z,6.85
2019-05-23T19:50:09.506Z,6.00
2019-05-23T19:52:40.581Z,5.78
2019-05-23T19:55:10.935Z,5.45
2019-05-23T19:57:42.481Z,5.20
2019-05-23T20:00:18.452Z,6.10
2019-05-23T20:02:53.827Z,6.00
2019-05-23T20:05:41.251Z,6.75
2019-05-23T20:08:11.729Z,7.33
2019-05-23T20:10:42.119Z,7.22
2019-05-23T20:13:12.541Z,6.58
2019-05-23T20:15:45.654Z,6.50
2019-05-23T20:18:16.427Z,6.25
2019-05-23T20:20:47.759Z,6.30
2019-05-23T20:23:18.183Z,6.17
2019-05-23T20:25:48.358Z,5.10
2019-05-23T20:28:19.331Z,5.28
2019-05-23T20:30:52.600Z,6.30
2019-05-23T20:33:24.064Z,5.60
2019-05-23T20:35:54.157Z,5.37
2019-05-23T20:38:25.056Z,5.50
2019-05-23T20:40:55.535Z,4.65
2019-05-23T20:43:25.924Z,5.05
2019-05-23T20:45:56.938Z,4.42
2019-05-23T20:48:27.902Z,4.90
2019-05-23T20:50:58.806Z,3.27
2019-05-23T20:53:28.824Z,4.05
2019-05-23T20:55:59.157Z,3.37
2019-05-23T20:58:30.465Z,3.70
2019-05-23T21:01:05.519Z,2.98
2019-05-23T21:03:36.476Z,4.15
2019-05-23T21:06:07.519Z,3.50
2019-05-23T21:08:37.539Z,3.95
2019-05-23T21:11:07.922Z,3.30
2019-05-23T21:13:38.106Z,5.00
2019-05-23T21:16:07.774Z,3.58
2019-05-23T21:18:38.767Z,3.35
2019-05-23T21:21:09.066Z,2.65
2019-05-23T21:23:39.141Z,3.30
2019-05-23T21:26:09.169Z,2.47
2019-05-23T21:28:39.593Z,3.35
2019-05-23T21:31:11.272Z,3.47
2019-05-23T21:33:41.266Z,3.05
2019-05-23T21:36:11.461Z,2.90
2019-05-23T21:38:42.546Z,3.30
2019-05-23T21:41:12.549Z,3.40
2019-05-23T21:43:43.310Z,2.98
2019-05-23T21:46:13.729Z,3.22
2019-05-23T21:48:44.927Z,3.35
2019-05-23T21:51:15.127Z,3.33
2019-05-23T21:53:45.505Z,3.37
2019-05-23T21:56:15.608Z,2.98
2019-05-23T21:58:45.676Z,2.98
2019-05-23T22:01:20.732Z,3.05
2019-05-23T22:03:53.016Z,3.02
2019-05-23T22:06:38.108Z,2.85
2019-05-23T22:09:12.041Z,2.50
2019-05-23T22:11:42.104Z,2.65
2019-05-23T22:14:12.298Z,3.17
2019-05-23T22:16:42.430Z,2.92
2019-05-23T22:19:14.272Z,2.77
2019-05-23T22:21:44.438Z,2.80
2019-05-23T22:24:14.818Z,3.15
2019-05-23T22:26:44.983Z,2.87
2019-05-23T22:29:15.582Z,3.45
2019-05-23T22:31:45.468Z,3.60
2019-05-23T22:34:19.769Z,3.10
2019-05-23T22:36:49.746Z,3.47
2019-05-23T22:39:19.819Z,3.83
2019-05-23T22:41:49.828Z,3.67
2019-05-23T22:44:19.628Z,4.35
2019-05-23T22:46:49.770Z,3.62
2019-05-23T22:49:19.669Z,4.05
2019-05-23T22:51:49.634Z,3.55
2019-05-23T22:54:19.433Z,4.55
2019-05-23T22:56:49.324Z,3.90
2019-05-23T22:59:19.322Z,4.10
2019-05-23T23:01:49.302Z,3.67
2019-05-23T23:04:19.459Z,4.97
2019-05-23T23:06:49.529Z,5.00
2019-05-23T23:09:20.256Z,4.58
2019-05-23T23:11:50.252Z,4.10
2019-05-23T23:14:20.155Z,4.22
2019-05-23T23:16:50.887Z,4.45
2019-05-23T23:19:20.797Z,4.42
2019-05-23T23:21:50.536Z,4.62
2019-05-23T23:24:20.950Z,4.55
2019-05-23T23:26:50.869Z,4.15
2019-05-23T23:29:20.794Z,4.30
2019-05-23T23:31:50.621Z,4.37
2019-05-23T23:34:20.773Z,4.85
2019-05-23T23:36:50.811Z,4.80
2019-05-23T23:39:21.689Z,4.67
2019-05-23T23:41:51.487Z,4.60
2019-05-23T23:44:22.477Z,5.17
2019-05-23T23:47:10.405Z,4.15
2019-05-23T23:49:58.368Z,3.90
2019-05-23T23:52:48.320Z,3.55
2019-05-23T23:55:35.848Z,3.42
2019-05-23T23:58:04.919Z,3.83
